Terminal Aerodrome Forecast
Issued by NWS

Home | Current Version | Previous Version | Text Only | Print | Product List | Glossary On
Versions: 1 2 3 4 5 6 7 8 9 10 11 12 13 14 15
000
FTUS44 KBMX 272218 AAA
TAFANB
TAF AMD
KANB 272218Z 2722/2818 23010G18KT P6SM BKN040
     FM280100 21005KT P6SM SCT050
     FM280600 22007KT P6SM VCTS BKN025CB
     FM281400 20006KT P6SM VCSH OVC025=

USA.gov is the U.S. government's official web portal to all federal, state and local government web resources and services.